createdAt,value
2023-04-16T00:00:36.378Z,15.77
2023-04-16T00:03:04.129Z,17.08
2023-04-16T00:05:31.854Z,16.50
2023-04-16T00:07:59.412Z,16.40
2023-04-16T00:10:27.333Z,17.13
2023-04-16T00:12:55.286Z,16.42
2023-04-16T00:15:23.391Z,16.25
2023-04-16T00:17:51.321Z,16.20
2023-04-16T00:20:20.428Z,16.90
2023-04-16T00:22:48.574Z,17.38
2023-04-16T00:25:16.001Z,20.60
2023-04-16T00:27:43.538Z,19.55
2023-04-16T00:30:11.239Z,25.70
2023-04-16T00:32:38.852Z,20.17
2023-04-16T00:35:06.963Z,17.88
2023-04-16T00:37:34.686Z,17.25
2023-04-16T00:40:02.307Z,18.55
2023-04-16T00:42:29.786Z,20.02
2023-04-16T00:44:57.291Z,18.73
2023-04-16T00:47:25.434Z,18.27
2023-04-16T00:52:20.449Z,19.95
2023-04-16T00:54:48.496Z,20.27
2023-04-16T00:57:16.454Z,17.70
2023-04-16T00:59:43.979Z,17.80
2023-04-16T01:02:12.673Z,18.67
2023-04-16T01:04:40.402Z,17.55
2023-04-16T01:07:08.082Z,16.95
2023-04-16T01:09:35.819Z,17.75
2023-04-16T01:12:04.132Z,18.30
2023-04-16T01:14:36.216Z,19.42
2023-04-16T01:17:04.350Z,19.45
2023-04-16T01:19:31.955Z,19.95
2023-04-16T01:21:59.685Z,21.30
2023-04-16T01:24:27.190Z,22.17
2023-04-16T01:26:54.840Z,22.08
2023-04-16T01:29:22.371Z,22.88
2023-04-16T01:31:51.181Z,20.17
2023-04-16T01:34:37.759Z,19.08
2023-04-16T01:37:05.740Z,19.95
2023-04-16T01:39:33.248Z,18.20
2023-04-16T01:42:01.445Z,20.52
2023-04-16T01:46:56.456Z,20.65
2023-04-16T01:49:24.064Z,20.88
2023-04-16T01:51:51.763Z,20.88
2023-04-16T01:54:19.380Z,20.77
2023-04-16T01:56:46.942Z,18.42
2023-04-16T01:59:14.602Z,18.63
2023-04-16T02:04:12.001Z,18.52
2023-04-16T02:06:40.386Z,18.02
2023-04-16T02:09:08.037Z,17.35
2023-04-16T02:11:37.346Z,16.05
2023-04-16T02:14:05.062Z,15.43
2023-04-16T02:16:32.891Z,15.75
2023-04-16T02:19:10.112Z,16.23
2023-04-16T02:21:38.653Z,14.98
2023-04-16T02:24:06.269Z,15.82
2023-04-16T02:26:35.263Z,16.55
2023-04-16T02:29:08.204Z,15.40
2023-04-16T02:31:42.533Z,16.25
2023-04-16T02:34:11.665Z,15.98
2023-04-16T02:36:39.476Z,16.88
2023-04-16T02:39:07.340Z,15.80
2023-04-16T02:41:34.894Z,16.30
2023-04-16T02:44:02.854Z,16.45
2023-04-16T02:48:58.119Z,17.10
2023-04-16T02:51:26.400Z,16.70
2023-04-16T02:53:53.929Z,16.17
2023-04-16T02:56:21.484Z,16.23
2023-04-16T02:58:49.380Z,18.40
2023-04-16T03:01:18.145Z,19.08
2023-04-16T03:03:45.916Z,17.45
2023-04-16T03:06:13.571Z,17.30
2023-04-16T03:08:41.454Z,18.10
2023-04-16T03:11:08.843Z,18.30
2023-04-16T03:16:04.336Z,19.15
2023-04-16T03:18:32.066Z,20.50
2023-04-16T03:20:59.638Z,19.38
2023-04-16T03:23:28.168Z,18.92
2023-04-16T03:25:56.040Z,18.33
2023-04-16T03:28:23.534Z,19.35
2023-04-16T03:30:54.138Z,19.73
2023-04-16T03:33:22.740Z,18.25
2023-04-16T03:35:56.637Z,19.38
2023-04-16T03:38:26.744Z,18.33
2023-04-16T03:40:56.785Z,17.80
2023-04-16T03:43:24.500Z,18.48
2023-04-16T03:45:52.008Z,19.85
2023-04-16T03:48:23.097Z,20.20
2023-04-16T03:50:50.840Z,18.95
2023-04-16T03:53:20.589Z,19.42
2023-04-16T03:55:52.784Z,19.80
2023-04-16T03:58:21.794Z,21.98
2023-04-16T04:00:49.393Z,20.25
2023-04-16T04:03:18.660Z,20.55
2023-04-16T04:05:48.883Z,18.45
2023-04-16T04:08:22.414Z,19.90
2023-04-16T04:10:51.183Z,20.55
2023-04-16T04:13:21.408Z,18.88
2023-04-16T04:15:52.247Z,20.13
2023-04-16T04:18:20.739Z,20.33
2023-04-16T04:20:48.229Z,20.75
2023-04-16T04:23:18.424Z,20.80
2023-04-16T04:25:47.351Z,19.50
2023-04-16T04:28:14.889Z,20.42
2023-04-16T04:30:42.422Z,21.33
2023-04-16T04:33:10.090Z,21.65
2023-04-16T04:35:39.084Z,20.05
2023-04-16T04:38:06.727Z,21.48
2023-04-16T04:40:35.307Z,21.42
2023-04-16T04:43:04.369Z,21.63
2023-04-16T04:45:32.298Z,21.85
2023-04-16T04:50:27.935Z,23.58
2023-04-16T04:52:55.365Z,25.02
2023-04-16T04:55:23.067Z,23.38
2023-04-16T04:57:51.724Z,22.30
2023-04-16T05:00:20.931Z,20.42
2023-04-16T05:02:54.185Z,20.20
2023-04-16T05:05:22.213Z,22.05
2023-04-16T05:07:49.754Z,21.85
2023-04-16T05:10:17.295Z,21.17
2023-04-16T05:12:48.816Z,18.77
2023-04-16T05:15:16.976Z,18.52
2023-04-16T05:17:44.486Z,20.88
2023-04-16T05:20:12.527Z,16.35
2023-04-16T05:22:40.032Z,14.50
2023-04-16T05:25:07.898Z,13.98
2023-04-16T05:27:36.319Z,16.23
2023-04-16T05:30:04.210Z,18.27
2023-04-16T05:32:32.222Z,18.10
2023-04-16T05:34:59.655Z,19.63
2023-04-16T05:37:27.164Z,20.38
2023-04-16T05:39:54.681Z,20.00
2023-04-16T05:42:22.386Z,20.73
2023-04-16T05:44:52.246Z,21.40
2023-04-16T05:47:20.295Z,20.35
2023-04-16T05:49:47.693Z,21.33
2023-04-16T05:52:15.394Z,21.30
2023-04-16T05:54:42.929Z,21.48
2023-04-16T05:57:10.745Z,22.48
2023-04-16T05:59:38.718Z,21.08
2023-04-16T06:02:07.147Z,21.92
2023-04-16T06:04:35.818Z,19.88
2023-04-16T06:07:03.508Z,21.65
2023-04-16T06:09:31.026Z,21.52
2023-04-16T06:11:59.605Z,22.42
2023-04-16T06:14:27.457Z,21.67
2023-04-16T06:16:54.899Z,21.42
2023-04-16T06:19:22.397Z,21.35
2023-04-16T06:21:50.364Z,21.30
2023-04-16T06:24:18.549Z,11.95
2023-04-16T06:29:13.422Z,9.85
2023-04-16T06:31:41.252Z,10.02
2023-04-16T06:34:09.184Z,11.25
2023-04-16T06:36:37.711Z,12.00
2023-04-16T06:39:05.282Z,12.55
2023-04-16T06:41:32.861Z,12.13
2023-04-16T06:44:00.476Z,13.35
2023-04-16T06:46:28.142Z,13.77
2023-04-16T06:48:55.676Z,10.48
2023-04-16T06:51:23.360Z,8.35
2023-04-16T06:53:51.237Z,6.15
2023-04-16T06:56:19.141Z,5.03
2023-04-16T06:58:46.518Z,4.78
2023-04-16T07:01:14.143Z,4.07
2023-04-16T07:03:41.858Z,3.67
2023-04-16T07:06:09.769Z,3.30
2023-04-16T07:08:37.235Z,3.53
2023-04-16T07:11:05.201Z,3.53
2023-04-16T07:16:00.712Z,4.25
2023-04-16T07:20:55.633Z,4.70
2023-04-16T07:23:23.272Z,4.18
2023-04-16T07:25:50.746Z,3.97
2023-04-16T07:28:18.397Z,4.47
2023-04-16T07:30:45.972Z,4.10
2023-04-16T07:33:13.679Z,3.95
2023-04-16T07:35:41.185Z,4.10
2023-04-16T07:38:08.843Z,3.47
2023-04-16T07:40:37.058Z,3.40
2023-04-16T07:43:04.628Z,2.50
2023-04-16T07:45:32.152Z,2.60
2023-04-16T07:47:59.724Z,1.45
2023-04-16T07:50:27.445Z,1.40
2023-04-16T07:52:54.960Z,1.70
2023-04-16T07:55:22.675Z,1.98
2023-04-16T07:57:50.401Z,2.30
2023-04-16T08:00:18.124Z,1.55
2023-04-16T08:02:46.212Z,1.35
2023-04-16T08:07:41.193Z,1.23
2023-04-16T08:10:09.334Z,1.20
2023-04-16T08:15:05.474Z,1.10
2023-04-16T08:17:34.630Z,1.40
2023-04-16T08:20:02.163Z,1.30
2023-04-16T08:22:30.044Z,1.50
2023-04-16T08:24:57.619Z,1.20
2023-04-16T08:27:25.187Z,1.45
2023-04-16T08:29:52.814Z,1.40
2023-04-16T08:32:20.751Z,1.38
2023-04-16T08:34:48.539Z,1.40
2023-04-16T08:37:16.048Z,1.20
2023-04-16T08:39:43.622Z,1.67
2023-04-16T08:42:34.551Z,1.33
2023-04-16T08:45:09.143Z,1.48
2023-04-16T08:47:37.587Z,1.45
2023-04-16T08:50:06.369Z,1.13
2023-04-16T08:52:38.121Z,1.45
2023-04-16T08:55:14.616Z,1.65
2023-04-16T08:57:48.698Z,1.50
2023-04-16T09:00:16.950Z,1.40
2023-04-16T09:02:45.048Z,1.55
2023-04-16T09:05:17.196Z,1.65
2023-04-16T09:07:48.648Z,1.77
2023-04-16T09:10:16.884Z,1.27
2023-04-16T09:12:44.848Z,1.45
2023-04-16T09:17:40.692Z,1.70
2023-04-16T09:20:11.015Z,1.60
2023-04-16T09:22:42.512Z,1.73
2023-04-16T09:25:11.337Z,2.10
2023-04-16T09:27:39.463Z,1.75
2023-04-16T09:30:21.927Z,2.28
2023-04-16T09:32:50.643Z,1.70
2023-04-16T09:35:21.679Z,1.95
2023-04-16T09:37:57.262Z,2.10
2023-04-16T09:40:27.489Z,1.85
2023-04-16T09:42:58.616Z,1.88
2023-04-16T09:45:26.378Z,1.60
2023-04-16T09:48:03.254Z,1.90
2023-04-16T09:50:31.302Z,1.65
2023-04-16T09:53:03.158Z,1.67
2023-04-16T09:55:30.992Z,1.27
2023-04-16T09:58:02.339Z,1.30
2023-04-16T10:00:31.454Z,1.48
2023-04-16T10:03:07.159Z,1.25
2023-04-16T10:05:35.719Z,1.17
2023-04-16T10:08:03.644Z,1.20
2023-04-16T10:10:32.298Z,1.33
2023-04-16T10:13:00.196Z,1.30
2023-04-16T10:15:28.369Z,1.30
2023-04-16T10:17:58.124Z,1.92
2023-04-16T10:20:26.409Z,1.70
2023-04-16T10:22:54.725Z,1.63
2023-04-16T10:25:23.385Z,2.13
2023-04-16T10:27:51.410Z,1.55
2023-04-16T10:30:19.602Z,1.17
2023-04-16T10:32:47.615Z,1.63
2023-04-16T10:37:45.318Z,1.33
2023-04-16T10:40:24.823Z,1.55
2023-04-16T10:42:59.594Z,1.60
2023-04-16T10:45:37.866Z,2.25
2023-04-16T10:48:09.479Z,1.60
2023-04-16T10:50:37.621Z,1.73
2023-04-16T10:53:31.595Z,1.80
2023-04-16T10:56:05.690Z,1.50
2023-04-16T10:58:36.443Z,1.67
2023-04-16T11:01:14.589Z,1.63
2023-04-16T11:03:44.107Z,2.25
2023-04-16T11:06:17.634Z,2.05
2023-04-16T11:11:18.115Z,2.17
2023-04-16T11:13:46.768Z,2.03
2023-04-16T11:16:15.655Z,2.30
2023-04-16T11:18:51.569Z,1.95
2023-04-16T11:21:20.183Z,2.15
2023-04-16T11:23:52.780Z,1.90
2023-04-16T11:26:30.975Z,1.90
2023-04-16T11:29:00.224Z,2.03
2023-04-16T11:31:27.821Z,2.00
2023-04-16T11:33:56.787Z,2.50
2023-04-16T11:36:26.952Z,1.98
2023-04-16T11:39:02.836Z,2.15
2023-04-16T11:41:30.474Z,2.10
2023-04-16T11:43:58.373Z,1.80
2023-04-16T11:46:38.748Z,1.67
2023-04-16T11:49:06.306Z,1.70
2023-04-16T11:51:39.003Z,1.80
2023-04-16T11:54:10.369Z,1.75
2023-04-16T11:56:47.822Z,1.80
2023-04-16T11:59:17.854Z,2.00
2023-04-16T12:01:53.212Z,2.33
2023-04-16T12:04:26.003Z,2.38
2023-04-16T12:07:15.219Z,2.30
2023-04-16T12:09:43.581Z,2.22
2023-04-16T12:12:31.922Z,2.10
2023-04-16T12:15:03.697Z,2.10
2023-04-16T12:17:33.349Z,2.15
2023-04-16T12:20:09.554Z,1.98
2023-04-16T12:22:40.149Z,2.55
2023-04-16T12:25:11.759Z,2.63
2023-04-16T12:27:54.191Z,2.63
2023-04-16T12:30:24.300Z,2.72
2023-04-16T12:33:11.622Z,2.80
2023-04-16T12:35:39.475Z,2.72
2023-04-16T12:38:07.639Z,3.28
2023-04-16T12:43:03.885Z,2.50
2023-04-16T12:45:31.451Z,3.10
2023-04-16T12:47:59.676Z,2.67
2023-04-16T12:50:28.877Z,2.70
2023-04-16T12:52:57.434Z,2.80
2023-04-16T12:55:25.932Z,2.70
2023-04-16T12:57:54.294Z,2.65
2023-04-16T13:00:22.020Z,2.33
2023-04-16T13:02:49.737Z,3.05
2023-04-16T13:05:19.288Z,2.80
2023-04-16T13:07:47.319Z,2.75
2023-04-16T13:10:14.965Z,2.80
2023-04-16T13:12:42.590Z,2.72
2023-04-16T13:15:10.687Z,2.83
2023-04-16T13:17:38.308Z,3.03
2023-04-16T13:20:06.351Z,2.67
2023-04-16T13:22:34.023Z,3.00
2023-04-16T13:25:01.573Z,3.60
2023-04-16T13:27:29.210Z,3.60
2023-04-16T13:29:56.747Z,3.22
2023-04-16T13:32:24.477Z,3.20
2023-04-16T13:34:52.181Z,3.38
2023-04-16T13:37:19.744Z,3.60
2023-04-16T13:39:47.396Z,3.63
2023-04-16T13:42:15.383Z,3.58
2023-04-16T13:44:43.045Z,3.83
2023-04-16T13:47:11.329Z,3.35
2023-04-16T13:49:38.908Z,3.97
2023-04-16T13:52:06.529Z,4.00
2023-04-16T13:54:34.311Z,4.20
2023-04-16T13:57:01.907Z,3.70
2023-04-16T13:59:29.948Z,4.50
2023-04-16T14:01:57.730Z,3.90
2023-04-16T14:04:25.693Z,4.55
2023-04-16T14:06:53.258Z,4.38
2023-04-16T14:09:21.015Z,3.90
2023-04-16T14:11:49.042Z,4.13
2023-04-16T14:14:16.453Z,4.47
2023-04-16T14:16:44.402Z,4.05
2023-04-16T14:19:12.368Z,3.88
2023-04-16T14:21:40.651Z,4.18
2023-04-16T14:24:09.338Z,3.67
2023-04-16T14:26:36.948Z,3.70
2023-04-16T14:29:05.356Z,4.32
2023-04-16T14:31:33.584Z,4.00
2023-04-16T14:34:01.391Z,3.92
2023-04-16T14:36:31.112Z,3.88
2023-04-16T14:38:58.652Z,4.00
2023-04-16T14:41:26.377Z,3.47
2023-04-16T14:43:53.948Z,3.92
2023-04-16T14:46:21.516Z,3.40
2023-04-16T14:48:49.185Z,4.45
2023-04-16T14:51:16.780Z,4.00
2023-04-16T14:53:44.376Z,4.00
2023-04-16T14:56:13.009Z,3.92
2023-04-16T14:58:42.831Z,4.05
2023-04-16T15:01:10.537Z,4.20
2023-04-16T15:03:39.359Z,4.20
2023-04-16T15:06:08.578Z,3.80
2023-04-16T15:08:36.368Z,4.13
2023-04-16T15:11:04.188Z,4.82
2023-04-16T15:13:34.354Z,4.05
2023-04-16T15:16:02.530Z,5.53
2023-04-16T15:20:58.051Z,4.15
2023-04-16T15:25:53.427Z,3.58
2023-04-16T15:28:21.157Z,4.80
2023-04-16T15:30:48.823Z,3.97
2023-04-16T15:33:16.730Z,4.43
2023-04-16T15:38:11.853Z,4.13
2023-04-16T15:40:39.521Z,4.22
2023-04-16T15:43:07.462Z,4.32
2023-04-16T15:45:35.458Z,4.15
2023-04-16T15:50:34.868Z,3.92
2023-04-16T15:53:03.159Z,4.35
2023-04-16T15:55:30.900Z,4.35
2023-04-16T15:57:58.851Z,3.50
2023-04-16T16:02:55.251Z,4.13
2023-04-16T16:07:51.471Z,4.45
2023-04-16T16:10:20.437Z,3.90
2023-04-16T16:12:48.514Z,4.70
2023-04-16T16:15:16.664Z,4.40
2023-04-16T16:17:44.646Z,4.60
2023-04-16T16:22:41.942Z,4.50
2023-04-16T16:25:10.306Z,4.55
2023-04-16T16:27:38.187Z,4.85
2023-04-16T16:30:07.409Z,4.70
2023-04-16T16:32:35.186Z,4.90
2023-04-16T16:35:03.107Z,5.22
2023-04-16T16:37:30.803Z,4.78
2023-04-16T16:39:58.391Z,4.68
2023-04-16T16:42:26.640Z,6.03
2023-04-16T16:44:56.704Z,5.20
2023-04-16T16:47:25.464Z,5.20
2023-04-16T16:49:54.773Z,4.18
2023-04-16T16:52:26.524Z,4.70
2023-04-16T16:54:54.827Z,4.55
2023-04-16T16:57:23.820Z,4.45
2023-04-16T16:59:51.585Z,4.10
2023-04-16T17:02:19.201Z,4.05
2023-04-16T17:04:47.448Z,4.88
2023-04-16T17:09:42.523Z,4.20
2023-04-16T17:12:10.190Z,4.53
2023-04-16T17:14:38.521Z,3.92
2023-04-16T17:17:06.212Z,4.10
2023-04-16T17:19:34.716Z,4.55
2023-04-16T17:22:03.567Z,4.00
2023-04-16T17:24:31.380Z,4.18
2023-04-16T17:26:59.200Z,4.03
2023-04-16T17:29:27.167Z,4.10
2023-04-16T17:34:22.903Z,4.10
2023-04-16T17:36:50.967Z,4.65
2023-04-16T17:39:21.005Z,4.00
2023-04-16T17:41:54.320Z,4.28
2023-04-16T17:44:23.412Z,5.00
2023-04-16T17:46:51.303Z,5.05
2023-04-16T17:49:19.294Z,4.03
2023-04-16T17:56:42.264Z,5.57
2023-04-16T17:59:09.985Z,4.40
2023-04-16T18:01:38.735Z,3.95
2023-04-16T18:04:07.213Z,4.35
2023-04-16T18:06:35.288Z,4.18
2023-04-16T18:11:32.530Z,4.55
2023-04-16T18:14:00.566Z,4.47
2023-04-16T18:18:56.077Z,5.03
2023-04-16T18:21:23.648Z,4.72
2023-04-16T18:23:51.227Z,4.35
2023-04-16T18:26:22.608Z,3.85
2023-04-16T18:28:51.180Z,4.25
2023-04-16T18:31:21.089Z,4.80
2023-04-16T18:33:57.307Z,4.20
2023-04-16T18:36:27.355Z,4.43
2023-04-16T18:39:02.109Z,5.25
2023-04-16T18:41:31.168Z,5.57
2023-04-16T18:43:58.990Z,5.60
2023-04-16T18:46:27.638Z,4.95
2023-04-16T18:48:55.556Z,4.85
2023-04-16T18:51:23.395Z,5.32
2023-04-16T18:53:51.395Z,4.72
2023-04-16T18:58:47.827Z,4.07
2023-04-16T19:01:16.553Z,4.43
2023-04-16T19:03:44.370Z,4.38
2023-04-16T19:06:11.966Z,4.47
2023-04-16T19:08:39.456Z,4.95
2023-04-16T19:11:07.385Z,4.75
2023-04-16T19:16:04.346Z,5.95
2023-04-16T19:18:32.175Z,5.65
2023-04-16T19:21:01.002Z,5.00
2023-04-16T19:23:29.423Z,4.85
2023-04-16T19:25:57.304Z,4.88
2023-04-16T19:28:25.473Z,4.97
2023-04-16T19:30:54.244Z,4.97
2023-04-16T19:33:21.890Z,4.65
2023-04-16T19:35:49.804Z,4.75
2023-04-16T19:38:17.771Z,4.90
2023-04-16T19:40:48.866Z,5.10
2023-04-16T19:43:16.456Z,4.43
2023-04-16T19:45:52.331Z,4.40
2023-04-16T19:48:21.530Z,3.80
2023-04-16T19:50:49.372Z,4.40
2023-04-16T19:55:45.186Z,5.10
2023-04-16T19:58:14.500Z,6.47
2023-04-16T20:00:42.566Z,5.60
2023-04-16T20:03:10.636Z,4.78
2023-04-16T20:05:38.313Z,5.40
2023-04-16T20:08:06.601Z,5.05
2023-04-16T20:13:01.789Z,6.30
2023-04-16T20:15:29.485Z,6.10
2023-04-16T20:17:57.080Z,5.93
2023-04-16T20:20:24.550Z,4.18
2023-04-16T20:22:52.123Z,4.53
2023-04-16T20:25:19.781Z,4.40
2023-04-16T20:27:47.413Z,4.57
2023-04-16T20:30:15.333Z,5.07
2023-04-16T20:32:43.254Z,4.38
2023-04-16T20:35:11.693Z,4.03
2023-04-16T20:37:41.914Z,4.22
2023-04-16T20:40:11.027Z,4.50
2023-04-16T20:42:38.586Z,5.90
2023-04-16T20:45:07.461Z,5.05
2023-04-16T20:47:35.460Z,5.05
2023-04-16T20:50:03.852Z,4.90
2023-04-16T20:52:31.632Z,4.15
2023-04-16T20:55:00.540Z,4.28
2023-04-16T20:57:29.900Z,3.90
2023-04-16T20:59:58.706Z,4.07
2023-04-16T21:02:28.657Z,4.57
2023-04-16T21:04:56.642Z,5.15
2023-04-16T21:07:24.173Z,5.43
2023-04-16T21:09:51.963Z,5.47
2023-04-16T21:12:19.520Z,4.45
2023-04-16T21:14:47.191Z,5.40
2023-04-16T21:17:14.794Z,5.15
2023-04-16T21:19:42.321Z,4.75
2023-04-16T21:22:10.371Z,4.65
2023-04-16T21:24:38.404Z,4.80
2023-04-16T21:27:05.907Z,5.10
2023-04-16T21:29:33.499Z,5.05
2023-04-16T21:32:01.180Z,5.00
2023-04-16T21:34:29.394Z,5.15
2023-04-16T21:39:27.565Z,5.15
2023-04-16T21:41:55.063Z,5.45
2023-04-16T21:44:25.074Z,5.65
2023-04-16T21:46:52.868Z,6.03
2023-04-16T21:49:20.873Z,6.05
2023-04-16T21:51:50.233Z,5.80
2023-04-16T21:54:34.937Z,5.70
2023-04-16T21:57:12.836Z,5.68
2023-04-16T22:08:37.266Z,5.93
2023-04-16T22:11:05.385Z,5.20
2023-04-16T22:13:33.682Z,6.38
2023-04-16T22:16:01.773Z,6.03
2023-04-16T22:18:33.177Z,6.38
2023-04-16T22:21:03.841Z,7.55
2023-04-16T22:23:32.423Z,7.18
2023-04-16T22:26:00.339Z,7.43
2023-04-16T22:28:27.952Z,7.57
2023-04-16T22:30:56.712Z,7.70
2023-04-16T22:33:24.255Z,6.78
2023-04-16T22:35:51.868Z,6.97
2023-04-16T22:38:19.513Z,7.00
2023-04-16T22:40:50.587Z,7.07
2023-04-16T22:43:18.317Z,6.50
2023-04-16T22:45:46.373Z,6.40
2023-04-16T22:48:14.474Z,6.53
2023-04-16T22:50:48.587Z,7.05
2023-04-16T22:53:16.430Z,6.82
2023-04-16T22:55:44.014Z,7.07
2023-04-16T22:58:12.943Z,6.70
2023-04-16T23:00:42.149Z,6.95
2023-04-16T23:03:10.357Z,6.97
2023-04-16T23:05:38.143Z,6.65
2023-04-16T23:08:06.226Z,6.78
2023-04-16T23:13:01.780Z,7.60
2023-04-16T23:20:24.817Z,9.27
2023-04-16T23:22:52.961Z,8.38
2023-04-16T23:27:50.677Z,8.60
2023-04-16T23:32:45.699Z,10.02
2023-04-16T23:35:13.678Z,9.32
2023-04-16T23:37:41.275Z,9.30
2023-04-16T23:40:09.734Z,9.55
2023-04-16T23:42:37.852Z,9.25
2023-04-16T23:45:05.983Z,10.70
2023-04-16T23:47:33.989Z,10.55
2023-04-16T23:50:02.133Z,10.52
2023-04-16T23:54:57.090Z,10.15
2023-04-16T23:57:25.319Z,10.23
2023-04-16T23:59:56.993Z,12.25
